sensor_id;sensor_type;location;lat;lon;timestamp;pressure;altitude;pressure_sealevel;temperature;humidity
65190;BME280;51777;53.570;9.984;2024-01-16T00:01:31;99912.88;;;0.26;100.00
65190;BME280;51777;53.570;9.984;2024-01-16T00:03:56;99916.72;;;0.19;100.00
65190;BME280;51777;53.570;9.984;2024-01-16T00:06:22;99925.25;;;0.18;100.00
65190;BME280;51777;53.570;9.984;2024-01-16T00:08:47;99925.56;;;0.13;100.00
65190;BME280;51777;53.570;9.984;2024-01-16T00:11:12;99930.91;;;0.09;100.00
65190;BME280;51777;53.570;9.984;2024-01-16T00:13:38;99924.94;;;0.10;100.00
65190;BME280;51777;53.570;9.984;2024-01-16T00:16:03;99935.81;;;0.12;100.00
65190;BME280;51777;53.570;9.984;2024-01-16T00:18:29;99941.81;;;0.11;100.00
65190;BME280;51777;53.570;9.984;2024-01-16T00:20:55;99944.44;;;0.09;100.00
65190;BME280;51777;53.570;9.984;2024-01-16T00:23:20;99953.78;;;0.09;100.00
65190;BME280;51777;53.570;9.984;2024-01-16T00:25:46;99956.09;;;-0.01;100.00
65190;BME280;51777;53.570;9.984;2024-01-16T00:28:11;99955.28;;;-0.02;100.00
65190;BME280;51777;53.570;9.984;2024-01-16T00:30:37;99955.28;;;-0.02;100.00
65190;BME280;51777;53.570;9.984;2024-01-16T00:33:02;99957.41;;;-0.08;100.00
65190;BME280;51777;53.570;9.984;2024-01-16T00:35:28;99953.16;;;-0.08;100.00
65190;BME280;51777;53.570;9.984;2024-01-16T00:37:53;99955.50;;;-0.05;100.00
65190;BME280;51777;53.570;9.984;2024-01-16T00:40:19;99955.44;;;-0.17;100.00
65190;BME280;51777;53.570;9.984;2024-01-16T00:42:44;99960.97;;;-0.11;100.00
65190;BME280;51777;53.570;9.984;2024-01-16T00:45:10;99957.38;;;-0.21;100.00
65190;BME280;51777;53.570;9.984;2024-01-16T00:47:35;99971.31;;;-0.14;100.00
65190;BME280;51777;53.570;9.984;2024-01-16T00:50:01;99969.59;;;-0.13;100.00
65190;BME280;51777;53.570;9.984;2024-01-16T00:52:27;99980.38;;;-0.10;100.00
65190;BME280;51777;53.570;9.984;2024-01-16T00:54:53;99983.41;;;-0.17;100.00
65190;BME280;51777;53.570;9.984;2024-01-16T00:57:18;99988.06;;;-0.24;100.00
65190;BME280;51777;53.570;9.984;2024-01-16T00:59:47;99997.09;;;-0.20;100.00
65190;BME280;51777;53.570;9.984;2024-01-16T01:02:12;99992.66;;;-0.16;100.00
65190;BME280;51777;53.570;9.984;2024-01-16T01:04:38;100000.56;;;-0.21;100.00
65190;BME280;51777;53.570;9.984;2024-01-16T01:07:03;100003.09;;;-0.21;100.00
65190;BME280;51777;53.570;9.984;2024-01-16T01:09:29;100000.66;;;-0.22;100.00
65190;BME280;51777;53.570;9.984;2024-01-16T01:11:54;100005.44;;;-0.18;100.00
65190;BME280;51777;53.570;9.984;2024-01-16T01:14:20;100006.72;;;-0.11;100.00
65190;BME280;51777;53.570;9.984;2024-01-16T01:16:45;100002.09;;;-0.18;100.00
65190;BME280;51777;53.570;9.984;2024-01-16T01:19:10;100009.34;;;-0.12;100.00
65190;BME280;51777;53.570;9.984;2024-01-16T01:21:37;99998.06;;;-0.08;100.00
65190;BME280;51777;53.570;9.984;2024-01-16T01:24:03;100010.06;;;-0.10;100.00
65190;BME280;51777;53.570;9.984;2024-01-16T01:26:28;100000.50;;;-0.07;100.00
65190;BME280;51777;53.570;9.984;2024-01-16T01:28:54;99996.44;;;-0.09;100.00
65190;BME280;51777;53.570;9.984;2024-01-16T01:31:19;100010.16;;;-0.12;100.00
65190;BME280;51777;53.570;9.984;2024-01-16T01:33:44;100011.97;;;-0.14;100.00
65190;BME280;51777;53.570;9.984;2024-01-16T01:36:10;100011.88;;;-0.12;100.00
65190;BME280;51777;53.570;9.984;2024-01-16T01:38:35;100014.19;;;-0.22;100.00
65190;BME280;51777;53.570;9.984;2024-01-16T01:41:00;100022.22;;;-0.15;100.00
65190;BME280;51777;53.570;9.984;2024-01-16T01:43:26;100026.22;;;-0.11;100.00
65190;BME280;51777;53.570;9.984;2024-01-16T01:46:12;100028.75;;;-0.11;100.00
65190;BME280;51777;53.570;9.984;2024-01-16T01:48:40;100034.34;;;-0.06;100.00
65190;BME280;51777;53.570;9.984;2024-01-16T01:51:06;100034.25;;;-0.05;100.00
65190;BME280;51777;53.570;9.984;2024-01-16T01:53:33;100039.13;;;-0.02;100.00
65190;BME280;51777;53.570;9.984;2024-01-16T01:56:00;100026.63;;;-0.05;100.00
65190;BME280;51777;53.570;9.984;2024-01-16T01:58:28;100038.66;;;-0.21;100.00
65190;BME280;51777;53.570;9.984;2024-01-16T02:00:54;100037.75;;;-0.20;100.00
65190;BME280;51777;53.570;9.984;2024-01-16T02:03:21;100039.22;;;-0.30;100.00
65190;BME280;51777;53.570;9.984;2024-01-16T02:05:49;100046.56;;;-0.40;100.00
65190;BME280;51777;53.570;9.984;2024-01-16T02:08:15;100057.31;;;-0.49;100.00
65190;BME280;51777;53.570;9.984;2024-01-16T02:10:42;100051.56;;;-0.52;100.00
65190;BME280;51777;53.570;9.984;2024-01-16T02:13:11;100049.88;;;-0.66;100.00
65190;BME280;51777;53.570;9.984;2024-01-16T02:15:36;100052.22;;;-0.63;100.00
65190;BME280;51777;53.570;9.984;2024-01-16T02:18:04;100045.69;;;-0.67;100.00
65190;BME280;51777;53.570;9.984;2024-01-16T02:20:31;100046.31;;;-0.64;100.00
65190;BME280;51777;53.570;9.984;2024-01-16T02:23:00;100052.69;;;-0.56;100.00
65190;BME280;51777;53.570;9.984;2024-01-16T02:25:25;100048.97;;;-0.79;100.00
65190;BME280;51777;53.570;9.984;2024-01-16T02:27:51;100055.47;;;-0.90;100.00
65190;BME280;51777;53.570;9.984;2024-01-16T02:30:18;100058.56;;;-0.99;100.00
65190;BME280;51777;53.570;9.984;2024-01-16T02:32:44;100053.41;;;-0.97;100.00
65190;BME280;51777;53.570;9.984;2024-01-16T02:35:09;100048.69;;;-0.89;100.00
65190;BME280;51777;53.570;9.984;2024-01-16T02:37:35;100048.53;;;-0.86;100.00
65190;BME280;51777;53.570;9.984;2024-01-16T02:40:00;100049.25;;;-0.84;100.00
65190;BME280;51777;53.570;9.984;2024-01-16T02:42:34;100047.25;;;-0.79;100.00
65190;BME280;51777;53.570;9.984;2024-01-16T02:44:59;100054.03;;;-0.79;100.00
65190;BME280;51777;53.570;9.984;2024-01-16T02:47:24;100053.75;;;-0.89;100.00
65190;BME280;51777;53.570;9.984;2024-01-16T02:49:50;100055.22;;;-0.85;100.00
65190;BME280;51777;53.570;9.984;2024-01-16T02:52:15;100050.50;;;-0.77;100.00
65190;BME280;51777;53.570;9.984;2024-01-16T02:54:41;100052.50;;;-0.68;100.00
65190;BME280;51777;53.570;9.984;2024-01-16T02:57:06;100050.31;;;-0.60;100.00
65190;BME280;51777;53.570;9.984;2024-01-16T02:59:32;100044.25;;;-0.85;100.00
65190;BME280;51777;53.570;9.984;2024-01-16T03:01:57;100050.97;;;-0.99;100.00
65190;BME280;51777;53.570;9.984;2024-01-16T03:04:23;100054.38;;;-1.00;100.00
65190;BME280;51777;53.570;9.984;2024-01-16T03:06:49;100050.75;;;-1.10;100.00
65190;BME280;51777;53.570;9.984;2024-01-16T03:09:14;100062.63;;;-1.10;100.00
65190;BME280;51777;53.570;9.984;2024-01-16T03:11:39;100064.06;;;-1.06;100.00
65190;BME280;51777;53.570;9.984;2024-01-16T03:14:05;100061.34;;;-1.03;100.00
65190;BME280;51777;53.570;9.984;2024-01-16T03:16:31;100062.06;;;-1.01;100.00
65190;BME280;51777;53.570;9.984;2024-01-16T03:18:57;100061.56;;;-0.92;100.00
65190;BME280;51777;53.570;9.984;2024-01-16T03:21:23;100058.56;;;-0.99;100.00
65190;BME280;51777;53.570;9.984;2024-01-16T03:23:48;100062.81;;;-0.99;100.00
65190;BME280;51777;53.570;9.984;2024-01-16T03:26:14;100060.38;;;-0.86;100.00
65190;BME280;51777;53.570;9.984;2024-01-16T03:28:40;100062.09;;;-0.87;100.00
65190;BME280;51777;53.570;9.984;2024-01-16T03:31:06;100066.72;;;-0.94;100.00
65190;BME280;51777;53.570;9.984;2024-01-16T03:33:31;100058.00;;;-0.90;100.00
65190;BME280;51777;53.570;9.984;2024-01-16T03:35:57;100050.16;;;-0.85;100.00
65190;BME280;51777;53.570;9.984;2024-01-16T03:38:22;100060.63;;;-0.91;100.00
65190;BME280;51777;53.570;9.984;2024-01-16T03:40:47;100059.28;;;-1.11;100.00
65190;BME280;51777;53.570;9.984;2024-01-16T03:43:13;100058.53;;;-1.13;100.00
65190;BME280;51777;53.570;9.984;2024-01-16T03:45:39;100061.25;;;-1.16;100.00
65190;BME280;51777;53.570;9.984;2024-01-16T03:48:04;100065.41;;;-1.15;100.00
65190;BME280;51777;53.570;9.984;2024-01-16T03:50:30;100064.50;;;-1.14;100.00
65190;BME280;51777;53.570;9.984;2024-01-16T03:52:56;100073.31;;;-1.05;100.00
65190;BME280;51777;53.570;9.984;2024-01-16T03:55:21;100068.25;;;-1.05;100.00
65190;BME280;51777;53.570;9.984;2024-01-16T03:57:48;100063.53;;;-1.11;100.00
65190;BME280;51777;53.570;9.984;2024-01-16T04:00:16;100053.75;;;-1.03;100.00
65190;BME280;51777;53.570;9.984;2024-01-16T04:02:41;100054.25;;;-1.12;100.00
65190;BME280;51777;53.570;9.984;2024-01-16T04:05:07;100065.69;;;-1.20;100.00
65190;BME280;51777;53.570;9.984;2024-01-16T04:07:33;100071.38;;;-1.16;100.00
65190;BME280;51777;53.570;9.984;2024-01-16T04:09:59;100064.16;;;-1.08;100.00
65190;BME280;51777;53.570;9.984;2024-01-16T04:12:26;100056.28;;;-1.03;100.00
65190;BME280;51777;53.570;9.984;2024-01-16T04:14:52;100058.47;;;-1.11;100.00
65190;BME280;51777;53.570;9.984;2024-01-16T04:17:17;100065.69;;;-1.20;100.00
65190;BME280;51777;53.570;9.984;2024-01-16T04:19:42;100061.50;;;-1.21;100.00
65190;BME280;51777;53.570;9.984;2024-01-16T04:22:08;100066.69;;;-1.22;100.00
65190;BME280;51777;53.570;9.984;2024-01-16T04:24:34;100070.75;;;-1.20;100.00
65190;BME280;51777;53.570;9.984;2024-01-16T04:27:00;100069.03;;;-1.19;100.00
65190;BME280;51777;53.570;9.984;2024-01-16T04:29:25;100068.59;;;-1.11;100.00
65190;BME280;51777;53.570;9.984;2024-01-16T04:31:51;100070.34;;;-0.98;100.00
65190;BME280;51777;53.570;9.984;2024-01-16T04:34:16;100070.34;;;-0.98;100.00
65190;BME280;51777;53.570;9.984;2024-01-16T04:36:41;100065.91;;;-0.94;100.00
65190;BME280;51777;53.570;9.984;2024-01-16T04:39:07;100074.59;;;-0.98;100.00
65190;BME280;51777;53.570;9.984;2024-01-16T04:41:33;100058.47;;;-1.11;100.00
65190;BME280;51777;53.570;9.984;2024-01-16T04:43:59;100059.34;;;-1.12;100.00
65190;BME280;51777;53.570;9.984;2024-01-16T04:46:24;100059.59;;;-1.17;100.00
65190;BME280;51777;53.570;9.984;2024-01-16T04:48:50;100052.09;;;-1.19;100.00
65190;BME280;51777;53.570;9.984;2024-01-16T04:51:15;100046.53;;;-1.25;100.00
65190;BME280;51777;53.570;9.984;2024-01-16T04:53:40;100041.22;;;-1.21;100.00
65190;BME280;51777;53.570;9.984;2024-01-16T04:56:06;100037.84;;;-1.35;100.00
65190;BME280;51777;53.570;9.984;2024-01-16T04:58:31;100037.28;;;-1.40;100.00
65190;BME280;51777;53.570;9.984;2024-01-16T05:00:57;100032.47;;;-1.45;100.00
65190;BME280;51777;53.570;9.984;2024-01-16T05:03:22;100026.22;;;-1.39;100.00
65190;BME280;51777;53.570;9.984;2024-01-16T05:05:48;100044.88;;;-1.40;100.00
65190;BME280;51777;53.570;9.984;2024-01-16T05:08:13;100036.28;;;-1.38;100.00
65190;BME280;51777;53.570;9.984;2024-01-16T05:10:41;100034.50;;;-1.36;100.00
65190;BME280;51777;53.570;9.984;2024-01-16T05:13:07;100034.66;;;-1.39;100.00
65190;BME280;51777;53.570;9.984;2024-01-16T05:15:32;100045.78;;;-1.41;100.00
65190;BME280;51777;53.570;9.984;2024-01-16T05:17:58;100052.97;;;-1.34;100.00
65190;BME280;51777;53.570;9.984;2024-01-16T05:20:23;100052.53;;;-1.26;100.00
65190;BME280;51777;53.570;9.984;2024-01-16T05:22:49;100054.31;;;-1.28;100.00
65190;BME280;51777;53.570;9.984;2024-01-16T05:25:14;100049.19;;;-1.12;100.00
65190;BME280;51777;53.570;9.984;2024-01-16T05:27:42;100049.75;;;-1.07;100.00
65190;BME280;51777;53.570;9.984;2024-01-16T05:30:09;100053.94;;;-1.06;100.00
65190;BME280;51777;53.570;9.984;2024-01-16T05:32:35;100038.50;;;-1.17;100.00
65190;BME280;51777;53.570;9.984;2024-01-16T05:35:00;100050.00;;;-1.12;100.00
65190;BME280;51777;53.570;9.984;2024-01-16T05:37:25;100046.50;;;-1.09;100.00
65190;BME280;51777;53.570;9.984;2024-01-16T05:39:51;100046.50;;;-1.09;100.00
65190;BME280;51777;53.570;9.984;2024-01-16T05:42:16;100038.88;;;-1.09;100.00
65190;BME280;51777;53.570;9.984;2024-01-16T05:44:42;100041.34;;;-1.08;100.00
65190;BME280;51777;53.570;9.984;2024-01-16T05:47:08;100042.88;;;-1.05;100.00
65190;BME280;51777;53.570;9.984;2024-01-16T05:49:33;100038.69;;;-1.06;100.00
65190;BME280;51777;53.570;9.984;2024-01-16T05:51:59;100039.81;;;-0.96;100.00
65190;BME280;51777;53.570;9.984;2024-01-16T05:54:24;100046.94;;;-1.03;100.00
65190;BME280;51777;53.570;9.984;2024-01-16T05:56:50;100040.00;;;-0.99;100.00
65190;BME280;51777;53.570;9.984;2024-01-16T05:59:15;100028.56;;;-0.92;100.00
65190;BME280;51777;53.570;9.984;2024-01-16T06:01:41;100029.38;;;-0.92;100.00
65190;BME280;51777;53.570;9.984;2024-01-16T06:04:07;100037.72;;;-0.90;100.00
65190;BME280;51777;53.570;9.984;2024-01-16T06:06:32;100034.09;;;-0.85;100.00
65190;BME280;51777;53.570;9.984;2024-01-16T06:08:58;100035.63;;;-0.83;100.00
65190;BME280;51777;53.570;9.984;2024-01-16T06:11:32;100036.38;;;-0.81;100.00
65190;BME280;51777;53.570;9.984;2024-01-16T06:13:58;100028.13;;;-0.84;100.00
65190;BME280;51777;53.570;9.984;2024-01-16T06:16:24;100029.94;;;-0.86;100.00
65190;BME280;51777;53.570;9.984;2024-01-16T06:18:50;100028.22;;;-0.86;100.00
65190;BME280;51777;53.570;9.984;2024-01-16T06:21:16;100028.66;;;-0.79;100.00
65190;BME280;51777;53.570;9.984;2024-01-16T06:23:50;100035.56;;;-0.81;100.00
65190;BME280;51777;53.570;9.984;2024-01-16T06:26:19;100039.81;;;-0.82;100.00
65190;BME280;51777;53.570;9.984;2024-01-16T06:28:44;100051.06;;;-0.86;100.00
65190;BME280;51777;53.570;9.984;2024-01-16T06:31:10;100038.53;;;-0.75;100.00
65190;BME280;51777;53.570;9.984;2024-01-16T06:33:35;100042.78;;;-0.75;100.00
65190;BME280;51777;53.570;9.984;2024-01-16T06:36:02;100038.63;;;-0.76;100.00
65190;BME280;51777;53.570;9.984;2024-01-16T06:38:31;100045.97;;;-0.72;100.00
65190;BME280;51777;53.570;9.984;2024-01-16T06:40:57;100039.28;;;-0.73;100.00
65190;BME280;51777;53.570;9.984;2024-01-16T06:43:23;100048.94;;;-0.65;100.00
65190;BME280;51777;53.570;9.984;2024-01-16T06:45:49;100054.94;;;-0.66;100.00
65190;BME280;51777;53.570;9.984;2024-01-16T06:48:14;100051.88;;;-0.71;100.00
65190;BME280;51777;53.570;9.984;2024-01-16T06:50:40;100051.59;;;-0.67;100.00
65190;BME280;51777;53.570;9.984;2024-01-16T06:53:05;100058.56;;;-0.70;100.00
65190;BME280;51777;53.570;9.984;2024-01-16T06:55:30;100048.31;;;-0.69;100.00
65190;BME280;51777;53.570;9.984;2024-01-16T06:57:56;100050.69;;;-0.66;100.00
65190;BME280;51777;53.570;9.984;2024-01-16T07:00:21;100050.50;;;-0.63;100.00
65190;BME280;51777;53.570;9.984;2024-01-16T07:02:51;100040.34;;;-0.63;100.00
65190;BME280;51777;53.570;9.984;2024-01-16T07:05:16;100042.06;;;-0.63;100.00
65190;BME280;51777;53.570;9.984;2024-01-16T07:07:42;100036.63;;;-0.71;100.00
65190;BME280;51777;53.570;9.984;2024-01-16T07:10:08;100039.09;;;-0.70;100.00
65190;BME280;51777;53.570;9.984;2024-01-16T07:12:38;100039.28;;;-0.73;100.00
65190;BME280;51777;53.570;9.984;2024-01-16T07:15:04;100044.34;;;-0.73;100.00
65190;BME280;51777;53.570;9.984;2024-01-16T07:17:30;100042.72;;;-0.74;100.00
65190;BME280;51777;53.570;9.984;2024-01-16T07:19:55;100042.25;;;-0.66;100.00
65190;BME280;51777;53.570;9.984;2024-01-16T07:22:21;100044.25;;;-0.57;100.00
65190;BME280;51777;53.570;9.984;2024-01-16T07:24:46;100040.34;;;-0.63;100.00
65190;BME280;51777;53.570;9.984;2024-01-16T07:27:11;100049.03;;;-0.67;100.00
65190;BME280;51777;53.570;9.984;2024-01-16T07:29:38;100049.59;;;-0.76;100.00
65190;BME280;51777;53.570;9.984;2024-01-16T07:32:04;100048.63;;;-0.73;100.00
65190;BME280;51777;53.570;9.984;2024-01-16T07:34:30;100049.03;;;-0.67;100.00
65190;BME280;51777;53.570;9.984;2024-01-16T07:36:55;100038.25;;;-0.56;100.00
65190;BME280;51777;53.570;9.984;2024-01-16T07:39:21;100042.53;;;-0.56;100.00
65190;BME280;51777;53.570;9.984;2024-01-16T07:41:48;100056.94;;;-0.57;100.00
65190;BME280;51777;53.570;9.984;2024-01-16T07:44:13;100056.31;;;-0.61;100.00
65190;BME280;51777;53.570;9.984;2024-01-16T07:46:39;100058.09;;;-0.63;100.00
65190;BME280;51777;53.570;9.984;2024-01-16T07:49:04;100055.75;;;-0.66;100.00
65190;BME280;51777;53.570;9.984;2024-01-16T07:51:31;100055.56;;;-0.63;100.00
65190;BME280;51777;53.570;9.984;2024-01-16T07:54:07;100058.28;;;-0.66;100.00
65190;BME280;51777;53.570;9.984;2024-01-16T07:56:34;100058.03;;;-0.61;100.00
65190;BME280;51777;53.570;9.984;2024-01-16T07:59:00;100058.91;;;-0.62;100.00
65190;BME280;51777;53.570;9.984;2024-01-16T08:01:30;100057.38;;;-0.65;100.00
65190;BME280;51777;53.570;9.984;2024-01-16T08:03:55;100067.91;;;-0.56;100.00
65190;BME280;51777;53.570;9.984;2024-01-16T08:06:22;100068.44;;;-0.51;100.00
65190;BME280;51777;53.570;9.984;2024-01-16T08:08:48;100071.06;;;-0.53;100.00
65190;BME280;51777;53.570;9.984;2024-01-16T08:11:14;100067.72;;;-0.53;100.00
65190;BME280;51777;53.570;9.984;2024-01-16T08:13:40;100071.88;;;-0.52;100.00
65190;BME280;51777;53.570;9.984;2024-01-16T08:16:07;100073.59;;;-0.39;100.00
65190;BME280;51777;53.570;9.984;2024-01-16T08:18:33;100077.13;;;-0.27;100.00
65190;BME280;51777;53.570;9.984;2024-01-16T08:20:59;100089.19;;;-0.31;100.00
65190;BME280;51777;53.570;9.984;2024-01-16T08:23:26;100080.56;;;-0.28;100.00
65190;BME280;51777;53.570;9.984;2024-01-16T08:25:52;100076.22;;;-0.26;100.00
65190;BME280;51777;53.570;9.984;2024-01-16T08:28:18;100070.41;;;-0.28;100.00
65190;BME280;51777;53.570;9.984;2024-01-16T08:30:44;100077.13;;;-0.27;100.00
65190;BME280;51777;53.570;9.984;2024-01-16T08:33:10;100081.94;;;-0.22;100.00
65190;BME280;51777;53.570;9.984;2024-01-16T08:35:35;100075.47;;;-0.14;100.00
65190;BME280;51777;53.570;9.984;2024-01-16T08:38:01;100085.91;;;-0.18;100.00
65190;BME280;51777;53.570;9.984;2024-01-16T08:40:26;100083.09;;;-0.14;100.00
65190;BME280;51777;53.570;9.984;2024-01-16T08:42:53;100088.09;;;-0.12;100.00
65190;BME280;51777;53.570;9.984;2024-01-16T08:45:23;100087.00;;;-0.08;100.00
65190;BME280;51777;53.570;9.984;2024-01-16T08:47:49;100081.59;;;-0.31;100.00
65190;BME280;51777;53.570;9.984;2024-01-16T08:50:17;100073.88;;;-0.29;100.00
65190;BME280;51777;53.570;9.984;2024-01-16T08:52:43;100055.91;;;-0.26;100.00
65190;BME280;51777;53.570;9.984;2024-01-16T08:55:08;100071.88;;;-0.24;100.00
65190;BME280;51777;53.570;9.984;2024-01-16T08:57:35;100081.47;;;-0.29;100.00
65190;BME280;51777;53.570;9.984;2024-01-16T09:00:03;100083.84;;;-0.26;100.00
65190;BME280;51777;53.570;9.984;2024-01-16T09:02:28;100076.66;;;-0.19;100.00
65190;BME280;51777;53.570;9.984;2024-01-16T09:04:55;100086.00;;;-0.20;100.00
65190;BME280;51777;53.570;9.984;2024-01-16T09:07:20;100085.00;;;-0.17;100.00
65190;BME280;51777;53.570;9.984;2024-01-16T09:09:46;100089.34;;;-0.05;100.00
65190;BME280;51777;53.570;9.984;2024-01-16T09:12:11;100091.59;;;-0.01;100.00
65190;BME280;51777;53.570;9.984;2024-01-16T09:14:37;100096.50;;;0.03;100.00
65190;BME280;51777;53.570;9.984;2024-01-16T09:17:03;100096.50;;;0.03;100.00
65190;BME280;51777;53.570;9.984;2024-01-16T09:19:29;100097.53;;;0.00;100.00
65190;BME280;51777;53.570;9.984;2024-01-16T09:21:55;100102.09;;;0.08;100.00
65190;BME280;51777;53.570;9.984;2024-01-16T09:24:20;100098.75;;;0.07;100.00
65190;BME280;51777;53.570;9.984;2024-01-16T09:26:46;100097.81;;;0.22;100.00
65190;BME280;51777;53.570;9.984;2024-01-16T09:29:12;100103.91;;;0.20;100.00
65190;BME280;51777;53.570;9.984;2024-01-16T09:31:38;100105.47;;;0.35;100.00
65190;BME280;51777;53.570;9.984;2024-01-16T09:34:04;100114.38;;;0.15;100.00
65190;BME280;51777;53.570;9.984;2024-01-16T09:36:29;100115.06;;;0.17;100.00
65190;BME280;51777;53.570;9.984;2024-01-16T09:38:55;100125.44;;;0.14;100.00
65190;BME280;51777;53.570;9.984;2024-01-16T09:41:20;100122.44;;;0.08;100.00
65190;BME280;51777;53.570;9.984;2024-01-16T09:43:47;100114.72;;;0.09;100.00
65190;BME280;51777;53.570;9.984;2024-01-16T09:46:14;100121.88;;;0.17;100.00
65190;BME280;51777;53.570;9.984;2024-01-16T09:48:41;100120.69;;;0.22;100.00
65190;BME280;51777;53.570;9.984;2024-01-16T09:51:10;100123.78;;;0.27;100.00
65190;BME280;51777;53.570;9.984;2024-01-16T09:53:48;100120.69;;;0.22;100.00
65190;BME280;51777;53.570;9.984;2024-01-16T09:56:15;100111.31;;;0.23;100.00
65190;BME280;51777;53.570;9.984;2024-01-16T09:58:43;100112.44;;;0.19;100.00
65190;BME280;51777;53.570;9.984;2024-01-16T10:01:08;100110.09;;;0.16;100.00
65190;BME280;51777;53.570;9.984;2024-01-16T10:03:35;100120.03;;;0.33;100.00
65190;BME280;51777;53.570;9.984;2024-01-16T10:06:04;100120.38;;;0.41;100.00
65190;BME280;51777;53.570;9.984;2024-01-16T10:08:31;100127.91;;;0.43;100.00
65190;BME280;51777;53.570;9.984;2024-01-16T10:10:57;100127.94;;;0.55;100.00
65190;BME280;51777;53.570;9.984;2024-01-16T10:13:23;100135.41;;;0.71;100.00
65190;BME280;51777;53.570;9.984;2024-01-16T10:15:50;100132.22;;;0.55;100.00
65190;BME280;51777;53.570;9.984;2024-01-16T10:18:23;100133.94;;;0.54;100.00
65190;BME280;51777;53.570;9.984;2024-01-16T10:20:49;100120.06;;;0.46;100.00
65190;BME280;51777;53.570;9.984;2024-01-16T10:23:35;100130.53;;;0.41;100.00
65190;BME280;51777;53.570;9.984;2024-01-16T10:26:10;100133.22;;;0.52;100.00
65190;BME280;51777;53.570;9.984;2024-01-16T10:28:37;100139.59;;;0.45;100.00
65190;BME280;51777;53.570;9.984;2024-01-16T10:31:08;100137.59;;;0.50;100.00
65190;BME280;51777;53.570;9.984;2024-01-16T10:33:33;100143.56;;;0.49;100.00
65190;BME280;51777;53.570;9.984;2024-01-16T10:36:12;100137.91;;;0.58;100.00
65190;BME280;51777;53.570;9.984;2024-01-16T10:38:42;100140.41;;;0.73;100.00
65190;BME280;51777;53.570;9.984;2024-01-16T10:41:16;100126.38;;;0.80;100.00
65190;BME280;51777;53.570;9.984;2024-01-16T10:43:43;100130.69;;;0.92;100.00
65190;BME280;51777;53.570;9.984;2024-01-16T10:46:18;100139.25;;;0.91;100.00
65190;BME280;51777;53.570;9.984;2024-01-16T10:48:45;100140.44;;;0.98;100.00
65190;BME280;51777;53.570;9.984;2024-01-16T10:51:24;100142.50;;;0.93;100.00
65190;BME280;51777;53.570;9.984;2024-01-16T10:53:56;100144.56;;;1.01;100.00
65190;BME280;51777;53.570;9.984;2024-01-16T10:56:23;100134.84;;;0.80;100.00
65190;BME280;51777;53.570;9.984;2024-01-16T10:59:06;100133.09;;;0.81;100.00
65190;BME280;51777;53.570;9.984;2024-01-16T11:01:35;100133.00;;;0.82;100.00
65190;BME280;51777;53.570;9.984;2024-01-16T11:04:01;100144.13;;;0.94;100.00
65190;BME280;51777;53.570;9.984;2024-01-16T11:06:27;100153.28;;;0.97;100.00
65190;BME280;51777;53.570;9.984;2024-01-16T11:08:54;100146.34;;;0.99;100.00
65190;BME280;51777;53.570;9.984;2024-01-16T11:11:21;100150.25;;;1.04;100.00
65190;BME280;51777;53.570;9.984;2024-01-16T11:13:48;100149.66;;;1.01;100.00
65190;BME280;51777;53.570;9.984;2024-01-16T11:16:14;100149.22;;;1.07;100.00
65190;BME280;51777;53.570;9.984;2024-01-16T11:18:39;100153.19;;;1.11;100.00
65190;BME280;51777;53.570;9.984;2024-01-16T11:21:07;100157.31;;;1.13;100.00
65190;BME280;51777;53.570;9.984;2024-01-16T11:23:34;100148.03;;;1.00;100.00
65190;BME280;51777;53.570;9.984;2024-01-16T11:26:08;100149.03;;;1.23;100.00
65190;BME280;51777;53.570;9.984;2024-01-16T11:28:47;100153.66;;;1.43;100.00
65190;BME280;51777;53.570;9.984;2024-01-16T11:31:32;100149.69;;;1.39;100.00
65190;BME280;51777;53.570;9.984;2024-01-16T11:33:58;100147.84;;;1.41;100.00
65190;BME280;51777;53.570;9.984;2024-01-16T11:36:48;100143.13;;;1.09;100.00
65190;BME280;51777;53.570;9.984;2024-01-16T11:39:19;100149.78;;;1.12;100.00
65190;BME280;51777;53.570;9.984;2024-01-16T11:41:50;100146.91;;;1.16;100.00
65190;BME280;51777;53.570;9.984;2024-01-16T11:44:45;100150.66;;;1.11;100.00
65190;BME280;51777;53.570;9.984;2024-01-16T11:47:19;100160.84;;;1.24;100.00
65190;BME280;51777;53.570;9.984;2024-01-16T11:50:08;100163.38;;;1.11;100.00
65190;BME280;51777;53.570;9.984;2024-01-16T11:52:44;100155.69;;;1.12;100.00
65190;BME280;51777;53.570;9.984;2024-01-16T11:55:27;100156.56;;;1.11;100.00
65190;BME280;51777;53.570;9.984;2024-01-16T12:00:45;100148.44;;;1.19;100.00
65190;BME280;51777;53.570;9.984;2024-01-16T12:03:15;100158.41;;;1.22;100.00
65190;BME280;51777;53.570;9.984;2024-01-16T12:05:43;100150.28;;;1.30;100.00
65190;BME280;51777;53.570;9.984;2024-01-16T12:08:09;100155.28;;;1.31;100.00
65190;BME280;51777;53.570;9.984;2024-01-16T12:10:45;100156.69;;;1.23;100.00
65190;BME280;51777;53.570;9.984;2024-01-16T12:13:12;100155.38;;;1.30;100.00
65190;BME280;51777;53.570;9.984;2024-01-16T12:15:37;100154.66;;;1.28;100.00
65190;BME280;51777;53.570;9.984;2024-01-16T12:18:03;100153.16;;;1.38;100.00
65190;BME280;51777;53.570;9.984;2024-01-16T12:20:33;100153.44;;;1.33;100.00
65190;BME280;51777;53.570;9.984;2024-01-16T12:23:01;100152.84;;;1.30;100.00
65190;BME280;51777;53.570;9.984;2024-01-16T12:25:28;100161.19;;;1.32;100.00
65190;BME280;51777;53.570;9.984;2024-01-16T12:27:56;100166.38;;;1.43;100.00
65190;BME280;51777;53.570;9.984;2024-01-16T12:30:26;100158.84;;;1.41;100.00
65190;BME280;51777;53.570;9.984;2024-01-16T12:33:13;100163.53;;;1.60;100.00
65190;BME280;51777;53.570;9.984;2024-01-16T12:35:40;100163.53;;;1.60;100.00
65190;BME280;51777;53.570;9.984;2024-01-16T12:38:08;100159.25;;;1.35;100.00
65190;BME280;51777;53.570;9.984;2024-01-16T12:40:55;100155.59;;;1.52;100.00
65190;BME280;51777;53.570;9.984;2024-01-16T12:43:21;100157.44;;;1.50;100.00
65190;BME280;51777;53.570;9.984;2024-01-16T12:45:54;100154.97;;;1.48;100.00